Time;durP1;ratioP1;P1;durP2;ratioP2;P2;SDS_P1;SDS_P2;PMS_P1;PMS_P2;Temp;Humidity;BMP_temperature;BMP_pressure;BME280_temperature;BME280_humidity;BME280_pressure;Samples;Min_cycle;Max_cycle;Signal;HPM_P1;HPM_P2
2023/11/26 00:02:05;;;;;;;0.20;0.20;;;;;;;1.13;100.00;95038.00;5110819;27;20457;-80
2023/11/26 00:04:32;;;;;;;0.30;0.30;;;;;;;1.03;100.00;95031.66;5132102;27;20057;-79
2023/11/26 00:06:58;;;;;;;0.10;0.10;;;;;;;1.02;100.00;95030.78;5115018;27;20023;-81
2023/11/26 00:09:23;;;;;;;0.35;0.35;;;;;;;0.99;100.00;95030.16;5132307;27;20045;-80
2023/11/26 00:11:50;;;;;;;0.80;0.50;;;;;;;1.04;100.00;95043.88;5115063;27;20019;-80
2023/11/26 00:14:16;;;;;;;0.43;0.43;;;;;;;1.04;100.00;95038.59;5132142;27;20019;-80
2023/11/26 00:16:41;;;;;;;0.80;0.80;;;;;;;0.98;100.00;95045.13;5119335;27;20034;-80
2023/11/26 00:19:07;;;;;;;0.13;0.13;;;;;;;1.08;100.00;95067.25;5110837;27;20066;-79
2023/11/26 00:21:33;;;;;;;0.20;0.20;;;;;;;1.07;100.00;95056.81;5115020;27;20063;-78
2023/11/26 00:23:59;;;;;;;0.17;0.17;;;;;;;1.06;100.00;95071.78;5110840;27;20133;-79
2023/11/26 00:26:26;;;;;;;0.20;0.20;;;;;;;1.04;100.00;95075.44;5115256;27;20454;-79
2023/11/26 00:28:52;;;;;;;0.20;0.20;;;;;;;1.06;100.00;95084.06;5114711;27;20023;-78
2023/11/26 00:31:18;;;;;;;0.20;0.20;;;;;;;1.07;100.00;95083.16;5133232;27;20145;-80
2023/11/26 00:33:48;;;;;;;0.20;0.20;;;;;;;1.08;100.00;95085.66;5131913;27;20046;-78
2023/11/26 00:36:15;;;;;;;0.17;0.17;;;;;;;1.09;100.00;95089.13;5115597;27;20084;-76
2023/11/26 00:38:44;;;;;;;0.20;0.20;;;;;;;1.11;100.00;95084.59;5127697;27;20023;-76
2023/11/26 00:41:10;;;;;;;0.20;0.20;;;;;;;1.10;100.00;95085.56;5114896;27;20043;-77
2023/11/26 00:43:36;;;;;;;0.20;0.20;;;;;;;1.14;100.00;95092.31;5110025;27;20079;-77
2023/11/26 00:46:02;;;;;;;0.20;0.20;;;;;;;1.07;100.00;95096.31;5123467;27;20050;-77
2023/11/26 00:48:28;;;;;;;0.50;0.50;;;;;;;1.11;100.00;95091.69;5114667;27;20023;-77
2023/11/26 00:50:54;;;;;;;0.20;0.20;;;;;;;1.12;100.00;95090.72;5106077;27;20138;-76
2023/11/26 00:53:20;;;;;;;0.30;0.30;;;;;;;1.13;100.00;95095.91;5133012;27;20027;-76
2023/11/26 00:55:45;;;;;;;0.20;0.20;;;;;;;0.91;100.00;95058.75;5110405;27;20026;-76
2023/11/26 00:58:12;;;;;;;0.20;0.20;;;;;;;1.15;100.00;95098.41;5131675;27;20432;-76
2023/11/26 01:00:38;;;;;;;0.43;0.43;;;;;;;1.02;100.00;95075.53;5114659;27;20117;-76
2023/11/26 01:03:04;;;;;;;0.13;0.13;;;;;;;1.08;100.00;95066.38;5106199;28;20087;-76
2023/11/26 01:05:30;;;;;;;0.52;0.45;;;;;;;1.13;100.00;95068.75;5114390;27;20454;-76
2023/11/26 01:07:55;;;;;;;0.30;0.30;;;;;;;1.11;100.00;95068.81;5120079;27;20107;-76
2023/11/26 01:10:21;;;;;;;0.28;0.28;;;;;;;1.21;100.00;95090.97;5104583;27;20079;-77
2023/11/26 01:12:47;;;;;;;3.72;1.15;;;;;;;1.21;100.00;95098.88;5127117;27;20027;-77
2023/11/26 01:15:14;;;;;;;0.28;0.28;;;;;;;1.12;100.00;95083.69;5105913;27;20031;-77
2023/11/26 01:17:39;;;;;;;0.40;0.40;;;;;;;1.20;100.00;95099.81;5109581;27;20030;-77
2023/11/26 01:20:06;;;;;;;0.57;0.57;;;;;;;1.12;100.00;95112.63;5110604;28;20027;-76
2023/11/26 01:22:31;;;;;;;0.17;0.17;;;;;;;1.06;100.00;95100.72;5122200;27;20401;-76
2023/11/26 01:24:57;;;;;;;0.30;0.30;;;;;;;1.00;100.00;95089.72;5102880;28;20110;-77
2023/11/26 01:27:23;;;;;;;0.50;0.50;;;;;;;0.96;100.00;95077.72;5107810;27;20049;-77
2023/11/26 01:29:48;;;;;;;0.20;0.20;;;;;;;1.17;100.00;95107.91;5108630;28;20051;-76
2023/11/26 01:32:14;;;;;;;0.20;0.20;;;;;;;1.24;100.00;95103.94;5119382;27;20482;-77
2023/11/26 01:34:40;;;;;;;0.20;0.20;;;;;;;1.23;100.00;95098.78;5118533;27;20081;-76
2023/11/26 01:37:08;;;;;;;1.27;1.17;;;;;;;1.31;100.00;95118.41;5096601;27;20026;-76
2023/11/26 01:39:33;;;;;;;0.68;0.68;;;;;;;1.26;100.00;95115.19;5101177;27;20031;-76
2023/11/26 01:41:59;;;;;;;0.20;0.20;;;;;;;1.24;100.00;95125.00;5102703;28;20453;-76
2023/11/26 01:44:25;;;;;;;1.00;1.00;;;;;;;1.31;100.00;95130.72;5124154;27;20059;-77
2023/11/26 01:46:51;;;;;;;0.20;0.20;;;;;;;1.25;100.00;95128.47;5113469;27;20539;-76
2023/11/26 01:49:16;;;;;;;0.20;0.20;;;;;;;1.31;100.00;95141.25;5126643;27;20027;-76
2023/11/26 01:51:42;;;;;;;0.20;0.20;;;;;;;1.37;100.00;95143.47;5105928;28;20688;-76
2023/11/26 01:54:08;;;;;;;0.55;0.45;;;;;;;1.35;100.00;95154.13;5117492;27;20043;-77
2023/11/26 01:56:34;;;;;;;0.20;0.20;;;;;;;1.39;100.00;95152.13;5096099;28;20026;-77
2023/11/26 01:58:59;;;;;;;0.20;0.20;;;;;;;1.41;100.00;95164.25;5103400;28;20399;-76
2023/11/26 02:01:25;;;;;;;0.25;0.25;;;;;;;1.42;100.00;95149.28;5106703;28;20047;-76
2023/11/26 02:03:53;;;;;;;0.17;0.17;;;;;;;1.40;100.00;95162.56;5130869;28;20379;-76
2023/11/26 02:06:19;;;;;;;0.20;0.20;;;;;;;1.35;100.00;95148.88;5118024;28;20050;-74
2023/11/26 02:08:45;;;;;;;0.60;0.60;;;;;;;1.40;100.00;95164.34;5114802;28;20055;-75
2023/11/26 02:11:11;;;;;;;0.50;0.50;;;;;;;1.41;100.00;95164.25;5108592;27;20026;-75
2023/11/26 02:13:47;;;;;;;0.30;0.30;;;;;;;1.47;100.00;95173.53;5122014;28;20479;-77
2023/11/26 02:16:14;;;;;;;0.15;0.15;;;;;;;1.38;100.00;95169.72;5105151;28;20027;-76
2023/11/26 02:18:40;;;;;;;0.25;0.25;;;;;;;1.45;100.00;95171.00;5105365;28;20387;-76
2023/11/26 02:21:07;;;;;;;0.32;0.32;;;;;;;1.40;100.00;95167.81;5105108;28;20050;-76
2023/11/26 02:56:00;;;;;;;1.15;0.52;;;;;;;1.67;100.00;95238.09;5128717;27;20393;-78
2023/11/26 02:58:26;;;;;;;0.20;0.20;;;;;;;1.57;100.00;95253.63;5128041;27;20027;-77
2023/11/26 03:00:51;;;;;;;0.20;0.20;;;;;;;1.44;100.00;95240.44;5110781;27;20114;-82
2023/11/26 03:03:19;;;;;;;0.30;0.30;;;;;;;1.52;100.00;95238.16;5107239;28;20032;-74
2023/11/26 03:05:50;;;;;;;0.68;0.65;;;;;;;1.45;100.00;95247.38;5124125;27;20041;-74
2023/11/26 03:08:21;;;;;;;0.70;0.70;;;;;;;1.41;100.00;95253.78;5148217;27;20046;-74
2023/11/26 03:13:35;;;;;;;0.30;0.30;;;;;;;1.23;100.00;95259.34;5149212;27;20125;-74
2023/11/26 03:16:07;;;;;;;0.43;0.43;;;;;;;1.16;100.00;95256.25;5147825;27;20030;-74
2023/11/26 03:18:33;;;;;;;0.20;0.20;;;;;;;1.17;100.00;95265.81;5134281;27;20477;-73
2023/11/26 03:20:59;;;;;;;0.30;0.30;;;;;;;1.17;100.00;95262.38;5145744;27;20550;-74
2023/11/26 03:23:24;;;;;;;0.15;0.15;;;;;;;1.20;100.00;95259.56;5149247;27;20030;-74
2023/11/26 03:25:54;;;;;;;0.52;0.52;;;;;;;1.25;100.00;95268.84;5149448;27;20110;-74
2023/11/26 03:28:20;;;;;;;0.40;0.40;;;;;;;1.27;100.00;95274.84;5148101;27;20425;-74
2023/11/26 03:30:52;;;;;;;0.30;0.30;;;;;;;1.30;100.00;95279.06;5130509;27;20023;-75
2023/11/26 03:33:18;;;;;;;;;;;;;;;1.35;100.00;95287.56;5148231;27;20023;-74
2023/11/26 03:35:45;;;;;;;0.70;0.70;;;;;;;1.22;100.00;95298.00;5148104;27;20289;-74
2023/11/26 03:38:14;;;;;;;0.30;0.30;;;;;;;1.25;100.00;95300.44;5130483;27;20053;-74
2023/11/26 03:40:40;;;;;;;0.40;0.40;;;;;;;1.19;100.00;95306.09;5130410;27;20027;-74
2023/11/26 03:43:06;;;;;;;0.20;0.20;;;;;;;1.20;100.00;95307.75;5147479;27;20039;-74
2023/11/26 03:45:32;;;;;;;0.50;0.50;;;;;;;1.16;100.00;95315.94;5130565;27;20140;-74
2023/11/26 03:47:57;;;;;;;0.13;0.13;;;;;;;1.21;100.00;95304.19;5129918;27;20027;-74
2023/11/26 03:50:23;;;;;;;0.32;0.32;;;;;;;1.27;100.00;95308.22;5130083;27;20035;-74
2023/11/26 03:52:49;;;;;;;0.20;0.20;;;;;;;1.23;100.00;95302.28;5147249;27;20121;-74
2023/11/26 03:55:15;;;;;;;0.30;0.30;;;;;;;1.20;100.00;95313.00;5125730;27;20407;-74
2023/11/26 03:57:41;;;;;;;0.50;0.50;;;;;;;1.19;100.00;95310.50;5133408;27;20034;-74
2023/11/26 04:00:08;;;;;;;0.22;0.22;;;;;;;1.32;100.00;95320.19;5134758;27;20046;-74
2023/11/26 04:02:35;;;;;;;0.30;0.30;;;;;;;1.29;100.00;95317.75;5115934;27;20114;-74
2023/11/26 04:05:01;;;;;;;0.20;0.20;;;;;;;1.32;100.00;95324.59;5133345;27;20019;-74
2023/11/26 04:07:27;;;;;;;0.22;0.22;;;;;;;1.34;100.00;95320.06;5116309;27;20039;-75
2023/11/26 04:09:52;;;;;;;2.83;1.02;;;;;;;1.39;100.00;95328.53;5133334;27;20537;-74
2023/11/26 04:12:18;;;;;;;0.30;0.30;;;;;;;1.34;100.00;95328.81;5130507;27;20575;-78
2023/11/26 04:14:57;;;;;;;0.30;0.30;;;;;;;1.43;100.00;95343.22;5132372;27;20031;-78
2023/11/26 04:17:24;;;;;;;0.20;0.20;;;;;;;1.43;100.00;95344.06;5121298;27;20474;-74
2023/11/26 04:19:51;;;;;;;0.30;0.30;;;;;;;1.51;100.00;95354.94;5128355;27;20134;-74
2023/11/26 04:22:23;;;;;;;0.30;0.30;;;;;;;1.58;100.00;95355.41;5134143;27;20023;-74
2023/11/26 04:24:50;;;;;;;0.32;0.32;;;;;;;1.61;100.00;95364.00;5132959;27;20385;-74
2023/11/26 04:27:16;;;;;;;0.20;0.20;;;;;;;1.57;100.00;95370.38;5132810;27;20030;-75
2023/11/26 04:29:43;;;;;;;0.45;0.45;;;;;;;1.64;100.00;95376.13;5134016;27;20034;-74
2023/11/26 04:32:08;;;;;;;0.20;0.20;;;;;;;1.64;100.00;95384.88;5132625;27;20035;-74
2023/11/26 04:34:34;;;;;;;0.95;0.95;;;;;;;1.57;100.00;95388.81;5119916;27;20096;-73
2023/11/26 04:37:00;;;;;;;0.40;0.40;;;;;;;1.59;100.00;95400.13;5112322;28;20464;-73
2023/11/26 04:39:26;;;;;;;1.45;0.82;;;;;;;1.57;100.00;95404.63;5112006;28;20100;-74
2023/11/26 04:41:52;;;;;;;0.63;0.63;;;;;;;1.58;100.00;95414.22;5113407;28;20059;-74
2023/11/26 04:44:18;;;;;;;0.47;0.47;;;;;;;1.58;100.00;95430.03;5131108;27;20023;-74
2023/11/26 04:46:45;;;;;;;0.20;0.20;;;;;;;1.64;100.00;95434.91;5115636;27;20500;-74
2023/11/26 04:49:11;;;;;;;0.35;0.35;;;;;;;1.66;100.00;95440.13;5133861;27;20034;-73
2023/11/26 04:51:37;;;;;;;0.85;0.85;;;;;;;1.71;100.00;95439.81;5133507;27;20023;-74
2023/11/26 04:54:03;;;;;;;0.40;0.40;;;;;;;1.70;100.00;95451.28;5132367;27;20051;-72
2023/11/26 09:50:42;;;;;;;3.47;2.27;;;;;;;4.19;100.00;96005.19;4618190;27;15449441;-78
2023/11/26 09:53:08;;;;;;;2.97;2.45;;;;;;;4.12;100.00;95999.44;5114708;27;20659;-78
2023/11/26 09:55:39;;;;;;;1.65;1.55;;;;;;;4.63;100.00;96005.94;5115060;27;20084;-79
2023/11/26 09:58:05;;;;;;;1.30;1.17;;;;;;;5.46;100.00;96016.38;5114601;27;20061;-78
2023/11/26 10:00:30;;;;;;;4.22;2.80;;;;;;;7.88;100.00;95999.88;5114692;27;20043;-79
2023/11/26 10:03:01;;;;;;;7.88;3.42;;;;;;;10.13;100.00;95988.66;5122593;28;20537;-78
2023/11/26 10:05:26;;;;;;;16.77;7.22;;;;;;;11.40;85.25;95954.16;5094494;28;20038;-78
2023/11/26 10:07:52;;;;;;;4.55;2.63;;;;;;;12.52;71.15;95944.63;5094075;28;20027;-78
2023/11/26 10:10:18;;;;;;;1.85;1.67;;;;;;;13.56;65.71;95948.63;5111523;28;20042;-79
2023/11/26 10:13:03;;;;;;;1.77;1.45;;;;;;;14.33;59.54;95936.38;5111294;28;20027;-79
2023/11/26 10:15:31;;;;;;;5.00;2.95;;;;;;;15.67;53.83;95927.38;5111501;28;20023;-79
2023/11/26 10:18:04;;;;;;;3.55;3.17;;;;;;;16.08;52.54;95935.53;5093697;28;20409;-80
2023/11/26 10:20:45;;;;;;;7.30;3.50;;;;;;;16.09;47.50;95929.09;5110921;28;20023;-79
2023/11/26 10:23:14;;;;;;;3.45;2.33;;;;;;;16.47;46.52;95930.25;5094593;28;20027;-78
2023/11/26 10:25:44;;;;;;;2.03;1.83;;;;;;;16.72;48.23;95948.16;5094123;28;20031;-78
2023/11/26 10:28:14;;;;;;;3.40;1.50;;;;;;;17.23;45.54;95950.34;5093483;28;20076;-79
2023/11/26 10:30:40;;;;;;;5.85;3.95;;;;;;;17.78;45.58;95944.84;5110683;28;20031;-77
2023/11/26 10:33:07;;;;;;;2.08;1.88;;;;;;;17.74;45.13;95946.25;5093344;28;20042;-79
2023/11/26 10:35:44;;;;;;;1.17;0.90;;;;;;;16.93;44.14;95959.22;5110823;28;20472;-78
2023/11/26 10:38:09;;;;;;;3.17;1.55;;;;;;;16.75;43.87;95950.50;5110353;28;20391;-79
2023/11/26 10:40:36;;;;;;;1.65;0.80;;;;;;;15.87;44.75;95971.06;5110455;28;20031;-78
2023/11/26 10:43:02;;;;;;;1.17;1.08;;;;;;;16.02;45.80;95971.25;5093344;28;20027;-77
2023/11/26 10:45:29;;;;;;;2.72;0.70;;;;;;;16.14;44.35;95972.63;5110708;28;20490;-77
2023/11/26 10:47:55;;;;;;;1.27;0.73;;;;;;;16.26;44.07;95968.56;5093304;28;20023;-77
2023/11/26 10:50:21;;;;;;;2.13;1.13;;;;;;;16.34;43.92;95970.41;5087057;28;20123;-79
2023/11/26 10:52:53;;;;;;;1.10;1.00;;;;;;;16.48;45.75;95984.09;5079740;28;20031;-78
2023/11/26 10:55:30;;;;;;;5.10;1.08;;;;;;;16.65;45.51;95987.63;5096638;28;20099;-77
2023/11/26 10:58:01;;;;;;;0.52;0.52;;;;;;;16.47;43.87;95982.38;5112440;27;20026;-76
2023/11/26 11:00:29;;;;;;;0.68;0.68;;;;;;;15.66;43.83;95986.84;5099795;27;20015;-76
2023/11/26 11:02:56;;;;;;;4.22;1.00;;;;;;;15.43;45.61;96001.91;5091335;27;20406;-77
2023/11/26 11:05:22;;;;;;;2.13;1.17;;;;;;;15.29;46.99;96016.81;5082507;27;20111;-75
2023/11/26 11:07:51;;;;;;;0.60;0.60;;;;;;;15.29;44.73;96011.44;5098968;27;20040;-70
2023/11/26 11:10:24;;;;;;;1.83;0.98;;;;;;;14.81;44.98;96027.31;5116361;27;20091;-69
2023/11/26 11:12:56;;;;;;;1.75;0.70;;;;;;;14.98;45.66;96029.97;5116101;27;20087;-71
2023/11/26 11:15:23;;;;;;;;;;;;;;;14.45;43.75;96031.94;5116078;27;20405;-70
2023/11/26 11:17:48;;;;;;;0.65;0.40;;;;;;;14.50;45.40;96030.47;5115899;27;20378;-70
2023/11/26 11:20:14;;;;;;;1.30;1.20;;;;;;;14.19;44.81;96039.91;5098377;27;20172;-70
2023/11/26 11:22:43;;;;;;;1.08;0.85;;;;;;;14.03;45.38;96053.19;5115929;27;20074;-70
2023/11/26 11:25:19;;;;;;;3.33;1.45;;;;;;;13.07;46.35;96063.63;5116108;27;20027;-70
2023/11/26 11:27:49;;;;;;;2.20;1.17;;;;;;;12.57;48.87;96071.91;5098927;27;20502;-70
2023/11/26 11:30:35;;;;;;;0.88;0.63;;;;;;;11.89;48.75;96091.66;5115348;27;20031;-71
2023/11/26 11:33:10;;;;;;;1.90;1.35;;;;;;;12.15;50.12;96086.63;5134055;27;20051;-70
2023/11/26 11:35:41;;;;;;;0.82;0.57;;;;;;;11.93;49.48;96093.09;5115620;27;20023;-69
2023/11/26 11:38:12;;;;;;;0.40;0.40;;;;;;;12.04;48.33;96081.38;5107494;28;20034;-69
2023/11/26 11:41:13;;;;;;;2.45;1.52;;;;;;;12.24;49.33;96091.97;5092016;27;20027;-70
2023/11/26 11:43:40;;;;;;;0.35;0.35;;;;;;;12.60;47.72;96087.72;5071416;27;20460;-69
2023/11/26 11:46:27;;;;;;;4.80;2.22;;;;;;;12.09;48.41;96104.09;5112649;27;20106;-71
2023/11/26 11:48:57;;;;;;;0.93;0.88;;;;;;;11.75;50.67;96110.81;5109705;27;20074;-72
2023/11/26 11:51:33;;;;;;;3.25;1.45;;;;;;;11.99;49.48;96103.25;5112070;27;20401;-72
2023/11/26 11:54:28;;;;;;;2.47;1.10;;;;;;;12.40;48.20;96113.69;5092866;27;20038;-72
2023/11/26 11:57:00;;;;;;;9.10;5.15;;;;;;;12.27;48.57;96113.16;5105617;27;20501;-72
2023/11/26 11:59:26;;;;;;;6.05;4.30;;;;;;;12.00;47.99;96110.28;5099158;27;20019;-72
2023/11/26 12:01:52;;;;;;;6.90;5.00;;;;;;;11.48;49.89;96123.94;5111166;27;20504;-72
2023/11/26 12:04:18;;;;;;;7.00;4.82;;;;;;;10.96;50.30;96122.28;5130372;27;20102;-74
2023/11/26 12:06:50;;;;;;;9.35;5.28;;;;;;;10.62;51.03;96135.00;5130603;27;20027;-78
2023/11/26 12:09:16;;;;;;;7.95;4.65;;;;;;;10.63;51.08;96129.56;5112076;27;20508;-72
2023/11/26 12:11:43;;;;;;;7.88;5.13;;;;;;;11.19;48.89;96137.22;5110058;27;20031;-73
2023/11/26 12:14:09;;;;;;;9.57;5.97;;;;;;;11.20;52.61;96157.63;5074543;28;20035;-73
2023/11/26 12:16:35;;;;;;;11.15;6.53;;;;;;;11.47;52.42;96173.13;5074296;28;20087;-72
2023/11/26 12:19:01;;;;;;;7.68;5.05;;;;;;;11.36;50.90;96164.19;5091744;28;20035;-72
2023/11/26 12:21:26;;;;;;;7.28;4.32;;;;;;;10.41;50.94;96174.25;5102772;27;20027;-73
2023/11/26 12:23:52;;;;;;;9.73;4.10;;;;;;;10.22;54.14;96181.13;5086206;27;20027;-74
2023/11/26 12:26:17;;;;;;;7.88;4.50;;;;;;;10.37;53.39;96178.19;5111419;27;20413;-73
2023/11/26 12:28:47;;;;;;;11.55;6.70;;;;;;;9.81;53.87;96186.31;5094669;27;20026;-72
2023/11/26 12:31:14;;;;;;;9.80;6.07;;;;;;;9.24;54.46;96197.09;5083935;28;20063;-72
2023/11/26 12:33:44;;;;;;;5.57;3.67;;;;;;;8.94;53.34;96194.16;5122595;27;20027;-72
2023/11/26 12:36:14;;;;;;;7.85;5.13;;;;;;;8.23;57.58;96223.53;5077403;28;20053;-72
2023/11/26 12:38:41;;;;;;;9.43;4.90;;;;;;;7.94;61.60;96229.19;5079847;27;20031;-72
2023/11/26 12:41:11;;;;;;;12.25;6.00;;;;;;;8.12;64.45;96222.50;5111466;27;20023;-73
2023/11/26 12:43:37;;;;;;;11.52;6.82;;;;;;;8.31;63.99;96223.84;5092790;27;20087;-71
2023/11/26 12:46:13;;;;;;;9.88;5.72;;;;;;;8.28;63.34;96246.25;5073913;28;20483;-71
2023/11/26 12:48:40;;;;;;;10.70;5.50;;;;;;;8.80;61.76;96256.53;5084225;27;20118;-73
2023/11/26 12:51:06;;;;;;;7.93;4.40;;;;;;;8.94;57.72;96264.34;5092902;27;20035;-72
2023/11/26 12:53:32;;;;;;;6.72;4.53;;;;;;;9.38;58.57;96263.59;5091510;28;20028;-73
2023/11/26 12:55:58;;;;;;;6.38;4.07;;;;;;;9.09;55.39;96256.97;5113713;27;20035;-73
2023/11/26 12:58:24;;;;;;;9.90;4.95;;;;;;;8.84;57.90;96268.66;5087128;28;20023;-73
2023/11/26 13:00:51;;;;;;;10.65;6.28;;;;;;;9.12;59.46;96281.59;5090920;28;20054;-73
2023/11/26 13:03:22;;;;;;;9.90;4.97;;;;;;;8.88;57.96;96275.47;5090671;28;20030;-73
2023/11/26 13:05:49;;;;;;;8.15;5.05;;;;;;;8.59;56.96;96276.78;5091403;28;20052;-73
2023/11/26 13:08:23;;;;;;;4.57;3.50;;;;;;;8.86;57.25;96282.72;5079924;27;20035;-73
2023/11/26 13:10:50;;;;;;;6.97;3.90;;;;;;;8.24;56.48;96294.50;5082356;27;20031;-72
2023/11/26 13:13:33;;;;;;;4.68;3.03;;;;;;;7.80;59.54;96301.22;5110830;27;20039;-73
2023/11/26 13:16:00;;;;;;;7.05;4.10;;;;;;;7.15;63.09;96308.44;5111045;27;20049;-73
2023/11/26 13:18:26;;;;;;;6.85;4.35;;;;;;;6.64;69.78;96317.28;5093416;27;20125;-73
2023/11/26 13:21:01;;;;;;;9.15;5.63;;;;;;;6.82;77.75;96332.84;5092393;28;20036;-72
2023/11/26 13:23:27;;;;;;;12.55;7.00;;;;;;;7.28;70.32;96335.91;5074586;28;20462;-72
2023/11/26 13:25:54;;;;;;;12.55;6.20;;;;;;;7.31;72.80;96340.16;5090316;28;20034;-72
2023/11/26 13:28:21;;;;;;;49.22;28.90;;;;;;;6.97;75.75;96336.28;5079166;28;20547;-75
2023/11/26 13:30:48;;;;;;;8.30;5.32;;;;;;;7.12;75.12;96355.66;5090598;28;20023;-82
2023/11/26 13:33:14;;;;;;;11.80;6.10;;;;;;;6.82;76.02;96364.75;5095481;28;20043;-81
2023/11/26 13:35:41;;;;;;;9.48;6.10;;;;;;;6.88;76.14;96374.09;5091442;28;20028;-81
2023/11/26 13:38:07;;;;;;;8.27;4.97;;;;;;;6.77;72.34;96374.81;5074797;28;20031;-81
2023/11/26 13:40:37;;;;;;;8.52;4.82;;;;;;;7.08;68.49;96376.28;5083828;28;20027;-82
2023/11/26 13:43:11;;;;;;;9.35;5.00;;;;;;;7.45;67.17;96369.31;5083775;28;20043;-82
2023/11/26 13:45:39;;;;;;;12.27;7.00;;;;;;;7.77;64.65;96386.59;5095476;28;20130;-81
2023/11/26 13:48:05;;;;;;;29.73;15.20;;;;;;;8.10;63.08;96386.03;5106164;28;20492;-81
2023/11/26 13:50:31;;;;;;;10.65;5.82;;;;;;;7.91;59.80;96380.28;5088766;28;20035;-81
2023/11/26 13:52:57;;;;;;;12.63;5.90;;;;;;;7.40;60.78;96376.78;5105202;28;20035;-81
2023/11/26 13:55:22;;;;;;;13.40;7.00;;;;;;;7.32;63.82;96384.44;5080402;28;20081;-81
2023/11/26 13:57:48;;;;;;;13.55;6.38;;;;;;;6.79;68.15;96399.50;5108637;28;20039;-81
2023/11/26 14:00:15;;;;;;;16.58;8.27;;;;;;;6.30;67.44;96399.16;5080744;28;20032;-81
2023/11/26 14:02:41;;;;;;;15.07;6.55;;;;;;;5.56;76.31;96414.38;5095763;28;20027;-81
2023/11/26 14:05:11;;;;;;;14.15;7.20;;;;;;;5.28;81.49;96416.97;5084603;28;20062;-81
2023/11/26 14:07:39;;;;;;;20.30;9.52;;;;;;;4.59;84.48;96438.63;5085445;28;20034;-81
2023/11/26 14:10:08;;;;;;;16.00;8.77;;;;;;;3.91;93.63;96447.69;5107997;28;20102;-80
2023/11/26 14:12:33;;;;;;;17.02;8.95;;;;;;;3.40;99.96;96459.22;5075788;28;20498;-81
2023/11/26 14:14:59;;;;;;;20.27;9.85;;;;;;;3.07;100.00;96474.13;5100267;28;20028;-81
2023/11/26 14:17:25;;;;;;;20.55;9.18;;;;;;;2.77;100.00;96479.13;5080187;28;20100;-81
2023/11/26 14:19:55;;;;;;;13.95;6.57;;;;;;;2.51;100.00;96501.50;5079303;28;20034;-81
2023/11/26 14:22:20;;;;;;;15.35;7.57;;;;;;;2.36;100.00;96514.53;5082099;28;20023;-81
2023/11/26 14:24:46;;;;;;;11.75;6.25;;;;;;;2.10;100.00;96518.38;5082780;28;20504;-81
2023/11/26 14:27:11;;;;;;;15.35;6.03;;;;;;;1.91;100.00;96523.59;5082010;27;20035;-81
2023/11/26 14:29:37;;;;;;;19.98;8.27;;;;;;;1.85;100.00;96533.56;5105817;27;20447;-81
2023/11/26 14:32:04;;;;;;;16.25;6.93;;;;;;;1.79;100.00;96541.75;5088249;28;20031;-81
2023/11/26 14:34:30;;;;;;;20.02;8.50;;;;;;;1.75;100.00;96548.09;5081221;28;20023;-81
2023/11/26 14:36:55;;;;;;;10.52;5.38;;;;;;;1.58;100.00;96549.66;5086453;28;20439;-82
2023/11/26 14:39:21;;;;;;;14.52;6.72;;;;;;;1.53;100.00;96556.06;5090364;27;20053;-81
2023/11/26 14:41:46;;;;;;;16.88;8.40;;;;;;;1.37;100.00;96563.75;5082183;27;20027;-81
2023/11/26 14:44:12;;;;;;;18.60;8.95;;;;;;;1.25;100.00;96574.78;5093711;28;20071;-80
2023/11/26 14:46:38;;;;;;;20.35;8.95;;;;;;;1.16;100.00;96575.16;5109090;27;20021;-80
2023/11/26 14:49:03;;;;;;;29.10;12.88;;;;;;;1.15;100.00;96569.94;5090918;27;20551;-80
2023/11/26 14:51:29;;;;;;;19.73;9.00;;;;;;;1.06;100.00;96573.81;5089200;27;20031;-82
2023/11/26 14:53:58;;;;;;;24.92;10.07;;;;;;;0.97;100.00;96571.56;5076466;28;20035;-80
2023/11/26 14:56:24;;;;;;;22.50;9.60;;;;;;;0.88;100.00;96580.69;5095707;27;20015;-81
2023/11/26 14:58:50;;;;;;;22.42;10.55;;;;;;;0.92;100.00;96574.34;5087080;28;20023;-81
2023/11/26 15:01:18;;;;;;;24.33;10.32;;;;;;;0.91;100.00;96590.22;5084552;28;20497;-81
2023/11/26 15:03:47;;;;;;;27.42;13.02;;;;;;;0.88;100.00;96579.81;5109766;27;20062;-83
2023/11/26 15:06:20;;;;;;;15.63;8.52;;;;;;;0.82;100.00;96585.31;5101303;27;20035;-81
2023/11/26 15:08:46;;;;;;;12.35;5.60;;;;;;;0.79;100.00;96580.19;5082231;28;20162;-80
2023/11/26 15:11:11;;;;;;;16.92;7.05;;;;;;;0.69;100.00;96574.41;5097560;28;20020;-81
2023/11/26 15:13:37;;;;;;;12.73;7.07;;;;;;;0.79;100.00;96581.03;5090077;27;20031;-81
2023/11/26 15:16:03;;;;;;;13.70;8.07;;;;;;;0.75;100.00;96589.09;5091900;27;20027;-81
2023/11/26 15:18:28;;;;;;;15.43;7.72;;;;;;;0.75;100.00;96584.69;5077746;27;20120;-81
2023/11/26 15:20:54;;;;;;;18.67;7.88;;;;;;;0.73;100.00;96583.91;5082837;28;20409;-82
2023/11/26 15:23:21;;;;;;;11.45;5.90;;;;;;;0.74;100.00;96584.78;5098804;27;20020;-80
2023/11/26 15:25:46;;;;;;;15.18;7.55;;;;;;;0.74;100.00;96590.03;5081370;27;20148;-80
2023/11/26 15:28:12;;;;;;;13.82;6.43;;;;;;;0.75;100.00;96595.22;5083323;27;20508;-81
2023/11/26 15:30:37;;;;;;;13.98;5.45;;;;;;;0.65;100.00;96593.03;5093585;27;20038;-82
2023/11/26 15:33:03;;;;;;;13.75;6.68;;;;;;;0.70;100.00;96609.47;5103339;28;20035;-81
2023/11/26 15:35:29;;;;;;;16.13;7.05;;;;;;;0.54;100.00;96601.31;5080056;28;20027;-81
2023/11/26 15:37:54;;;;;;;18.15;8.52;;;;;;;0.55;100.00;96606.50;5107116;27;20038;-81
2023/11/26 15:40:21;;;;;;;12.00;6.03;;;;;;;0.59;100.00;96630.06;5079817;27;20023;-80
2023/11/26 15:42:48;;;;;;;16.52;6.55;;;;;;;0.52;100.00;96630.28;5083036;27;20114;-81
2023/11/26 15:45:14;;;;;;;13.77;6.57;;;;;;;0.52;100.00;96625.03;5093143;27;20422;-80
2023/11/26 15:47:40;;;;;;;11.50;6.05;;;;;;;0.53;100.00;96637.28;5115309;27;20034;-81
2023/11/26 15:50:10;;;;;;;9.18;5.45;;;;;;;0.54;100.00;96643.41;5087393;28;20047;-82
2023/11/26 15:52:36;;;;;;;10.88;6.40;;;;;;;0.58;100.00;96628.38;5081525;27;20519;-81
2023/11/26 15:55:03;;;;;;;7.28;4.05;;;;;;;0.59;100.00;96632.69;5094881;28;20123;-80
2023/11/26 15:57:29;;;;;;;12.90;5.40;;;;;;;0.64;100.00;96629.00;5096646;27;20031;-81
2023/11/26 15:59:56;;;;;;;12.02;5.90;;;;;;;0.64;100.00;96615.84;5109749;27;20427;-80
2023/11/26 16:02:22;;;;;;;14.32;6.53;;;;;;;0.62;100.00;96617.66;5086794;28;20031;-81
2023/11/26 16:04:48;;;;;;;15.85;7.30;;;;;;;0.67;100.00;96639.41;5082192;27;20482;-81
2023/11/26 16:07:14;;;;;;;15.82;7.40;;;;;;;0.60;100.00;96631.78;5090494;28;20024;-80
2023/11/26 16:09:40;;;;;;;15.90;7.18;;;;;;;0.55;100.00;96630.19;5083141;27;20478;-80
2023/11/26 16:12:10;;;;;;;13.85;6.05;;;;;;;0.61;100.00;96638.78;5083066;28;20034;-81
2023/11/26 16:14:36;;;;;;;11.05;5.22;;;;;;;0.54;100.00;96649.53;5089313;27;20080;-81
2023/11/26 16:17:01;;;;;;;8.57;4.85;;;;;;;0.61;100.00;96654.56;5091475;28;20428;-80
2023/11/26 16:19:27;;;;;;;10.85;5.32;;;;;;;0.55;100.00;96651.22;5086793;27;20196;-79
2023/11/26 16:21:54;;;;;;;9.98;5.60;;;;;;;0.67;100.00;96657.81;5104554;27;20027;-81
2023/11/26 16:24:20;;;;;;;8.80;5.00;;;;;;;0.74;100.00;96658.44;5077624;28;20034;-80
2023/11/26 16:26:45;;;;;;;12.35;6.32;;;;;;;0.78;100.00;96655.63;5079897;28;20367;-80
2023/11/26 16:29:11;;;;;;;8.80;5.20;;;;;;;0.81;100.00;96657.28;5092537;27;20100;-81
2023/11/26 16:31:43;;;;;;;14.60;5.32;;;;;;;0.82;100.00;96656.38;5094857;27;20027;-80
2023/11/26 16:34:12;;;;;;;19.48;7.00;;;;;;;0.86;100.00;96666.72;5101033;27;20027;-80
2023/11/26 16:36:39;;;;;;;12.05;6.13;;;;;;;0.88;100.00;96674.56;5079274;28;20089;-80
2023/11/26 16:39:08;;;;;;;12.32;5.90;;;;;;;0.91;100.00;96674.44;5087934;27;20050;-80
2023/11/26 16:41:41;;;;;;;13.50;6.60;;;;;;;0.91;100.00;96690.25;5115072;27;20453;-80
2023/11/26 16:44:07;;;;;;;15.05;7.82;;;;;;;0.94;100.00;96687.50;5114063;27;20490;-81
2023/11/26 16:46:33;;;;;;;13.48;6.80;;;;;;;1.01;100.00;96699.50;5082240;28;20020;-80
2023/11/26 16:48:59;;;;;;;15.20;6.53;;;;;;;1.06;100.00;96695.78;5092967;28;20054;-80
2023/11/26 16:51:27;;;;;;;14.65;7.63;;;;;;;1.14;100.00;96708.63;5082549;28;20031;-80
2023/11/26 16:53:53;;;;;;;9.35;5.40;;;;;;;1.13;100.00;96706.06;5085265;27;20026;-80
2023/11/26 16:56:20;;;;;;;7.60;3.92;;;;;;;1.08;100.00;96693.94;5099980;28;20024;-73
2023/11/26 16:58:46;;;;;;;7.90;3.67;;;;;;;1.14;100.00;96702.53;5076715;28;20106;-74
2023/11/26 17:01:12;;;;;;;6.30;3.67;;;;;;;1.15;100.00;96715.63;5093279;28;20549;-74
2023/11/26 17:03:38;;;;;;;15.52;6.25;;;;;;;1.18;100.00;96701.47;5094398;27;20023;-80